sensor_id;sensor_type;location;lat;lon;timestamp;pressure;altitude;pressure_sealevel;temperature;humidity
61205;BME280;47068;55.780;37.520;2023-04-20T00:02:19;100594.94;;;12.11;30.61
61205;BME280;47068;55.780;37.520;2023-04-20T00:04:46;100605.09;;;12.07;30.34
61205;BME280;47068;55.780;37.520;2023-04-20T00:07:11;100604.25;;;12.07;29.25
61205;BME280;47068;55.780;37.520;2023-04-20T00:09:37;100600.50;;;12.00;30.04
61205;BME280;47068;55.780;37.520;2023-04-20T00:12:03;100573.53;;;11.85;30.50
61205;BME280;47068;55.780;37.520;2023-04-20T00:14:28;100600.38;;;12.01;30.05
61205;BME280;47068;55.780;37.520;2023-04-20T00:16:54;100596.31;;;11.97;30.35
61205;BME280;47068;55.780;37.520;2023-04-20T00:19:19;100603.47;;;11.97;30.04
61205;BME280;47068;55.780;37.520;2023-04-20T00:21:47;100602.66;;;11.96;30.45
61205;BME280;47068;55.780;37.520;2023-04-20T00:24:13;100587.84;;;11.84;30.03
61205;BME280;47068;55.780;37.520;2023-04-20T00:26:38;100596.25;;;11.89;30.48
61205;BME280;47068;55.780;37.520;2023-04-20T00:29:04;100598.22;;;11.87;29.81
61205;BME280;47068;55.780;37.520;2023-04-20T00:31:30;100589.75;;;11.74;30.27
61205;BME280;47068;55.780;37.520;2023-04-20T00:33:55;100596.16;;;11.81;29.33
61205;BME280;47068;55.780;37.520;2023-04-20T00:36:21;100601.31;;;11.82;30.95
61205;BME280;47068;55.780;37.520;2023-04-20T00:38:46;100568.97;;;11.68;29.88
61205;BME280;47068;55.780;37.520;2023-04-20T00:41:12;100593.16;;;11.84;30.26
61205;BME280;47068;55.780;37.520;2023-04-20T00:43:48;100590.13;;;11.79;30.16
61205;BME280;47068;55.780;37.520;2023-04-20T00:46:14;100594.47;;;11.80;31.19
61205;BME280;47068;55.780;37.520;2023-04-20T00:48:41;100584.09;;;11.77;31.78
61205;BME280;47068;55.780;37.520;2023-04-20T00:51:06;100576.19;;;11.58;31.16
61205;BME280;47068;55.780;37.520;2023-04-20T00:53:32;100581.06;;;11.62;30.47
61205;BME280;47068;55.780;37.520;2023-04-20T00:55:58;100571.69;;;11.58;31.47
61205;BME280;47068;55.780;37.520;2023-04-20T00:58:24;100578.16;;;11.56;31.42
61205;BME280;47068;55.780;37.520;2023-04-20T01:00:49;100560.47;;;11.27;32.04
61205;BME280;47068;55.780;37.520;2023-04-20T01:03:15;100571.56;;;11.32;32.21
61205;BME280;47068;55.780;37.520;2023-04-20T01:05:40;100522.91;;;10.93;32.54
61205;BME280;47068;55.780;37.520;2023-04-20T01:08:06;100572.44;;;11.14;33.73
61205;BME280;47068;55.780;37.520;2023-04-20T01:10:31;100572.19;;;11.07;34.15
61205;BME280;47068;55.780;37.520;2023-04-20T01:12:57;100554.34;;;10.90;32.50
61205;BME280;47068;55.780;37.520;2023-04-20T01:15:23;100562.44;;;10.98;33.37
61205;BME280;47068;55.780;37.520;2023-04-20T01:17:48;100569.97;;;11.02;33.13
61205;BME280;47068;55.780;37.520;2023-04-20T01:20:14;100513.16;;;10.84;33.34
61205;BME280;47068;55.780;37.520;2023-04-20T01:22:47;100570.03;;;11.20;32.68
61205;BME280;47068;55.780;37.520;2023-04-20T01:25:14;100556.59;;;11.22;33.90
61205;BME280;47068;55.780;37.520;2023-04-20T01:27:40;100556.19;;;11.17;33.07
61205;BME280;47068;55.780;37.520;2023-04-20T01:30:06;100555.09;;;11.10;32.34
61205;BME280;47068;55.780;37.520;2023-04-20T01:32:31;100552.19;;;10.93;32.55
61205;BME280;47068;55.780;37.520;2023-04-20T01:34:57;100554.72;;;10.95;32.41
61205;BME280;47068;55.780;37.520;2023-04-20T01:37:22;100548.44;;;10.86;32.98
61205;BME280;47068;55.780;37.520;2023-04-20T01:39:48;100515.84;;;10.65;33.15
61205;BME280;47068;55.780;37.520;2023-04-20T01:42:13;100547.59;;;10.86;34.32
61205;BME280;47068;55.780;37.520;2023-04-20T01:44:39;100559.78;;;10.88;34.09
61205;BME280;47068;55.780;37.520;2023-04-20T01:47:04;100558.56;;;10.83;33.91
61205;BME280;47068;55.780;37.520;2023-04-20T01:49:30;100546.66;;;10.77;34.18
61205;BME280;47068;55.780;37.520;2023-04-20T01:51:55;100535.06;;;10.59;34.83
61205;BME280;47068;55.780;37.520;2023-04-20T01:54:21;100558.44;;;10.65;35.81
61205;BME280;47068;55.780;37.520;2023-04-20T01:56:47;100533.69;;;10.45;35.59
61205;BME280;47068;55.780;37.520;2023-04-20T01:59:12;100552.19;;;10.47;35.93
61205;BME280;47068;55.780;37.520;2023-04-20T02:01:37;100551.66;;;10.34;36.52
61205;BME280;47068;55.780;37.520;2023-04-20T02:04:03;100548.28;;;10.32;36.28
61205;BME280;47068;55.780;37.520;2023-04-20T02:06:28;100541.56;;;10.18;36.73
61205;BME280;47068;55.780;37.520;2023-04-20T02:08:54;100548.00;;;10.25;36.55
61205;BME280;47068;55.780;37.520;2023-04-20T02:11:19;100516.47;;;10.11;36.50
61205;BME280;47068;55.780;37.520;2023-04-20T02:13:46;100539.03;;;10.26;36.45
61205;BME280;47068;55.780;37.520;2023-04-20T02:16:11;100541.84;;;10.24;36.03
61205;BME280;47068;55.780;37.520;2023-04-20T02:18:37;100525.59;;;10.18;36.28
61205;BME280;47068;55.780;37.520;2023-04-20T02:21:04;100541.56;;;10.18;36.02
61205;BME280;47068;55.780;37.520;2023-04-20T02:23:30;100545.91;;;10.19;35.68
61205;BME280;47068;55.780;37.520;2023-04-20T02:25:55;100543.25;;;10.19;36.64
61205;BME280;47068;55.780;37.520;2023-04-20T02:28:21;100534.41;;;10.09;35.31
61205;BME280;47068;55.780;37.520;2023-04-20T02:30:46;100535.00;;;10.22;35.30
61205;BME280;47068;55.780;37.520;2023-04-20T02:33:12;100534.84;;;10.23;34.85
61205;BME280;47068;55.780;37.520;2023-04-20T02:35:37;100536.53;;;10.34;35.16
61205;BME280;47068;55.780;37.520;2023-04-20T02:38:03;100531.75;;;10.38;35.88
61205;BME280;47068;55.780;37.520;2023-04-20T02:40:28;100547.28;;;10.33;36.57
61205;BME280;47068;55.780;37.520;2023-04-20T02:42:54;100499.00;;;9.79;35.00
61205;BME280;47068;55.780;37.520;2023-04-20T02:45:19;100517.75;;;10.07;35.16
61205;BME280;47068;55.780;37.520;2023-04-20T02:47:45;100540.31;;;10.22;36.51
61205;BME280;47068;55.780;37.520;2023-04-20T02:50:11;100544.66;;;10.23;36.56
61205;BME280;47068;55.780;37.520;2023-04-20T02:52:37;100548.13;;;10.14;35.98
61205;BME280;47068;55.780;37.520;2023-04-20T02:55:02;100524.75;;;10.08;36.60
61205;BME280;47068;55.780;37.520;2023-04-20T02:57:28;100548.56;;;10.29;36.59
61205;BME280;47068;55.780;37.520;2023-04-20T02:59:53;100531.91;;;10.17;35.38
61205;BME280;47068;55.780;37.520;2023-04-20T03:02:19;100535.41;;;10.27;35.80
61205;BME280;47068;55.780;37.520;2023-04-20T03:04:45;100544.78;;;10.41;35.63
61205;BME280;47068;55.780;37.520;2023-04-20T03:07:11;100540.16;;;10.43;35.82
61205;BME280;47068;55.780;37.520;2023-04-20T03:09:36;100513.28;;;10.26;36.41
61205;BME280;47068;55.780;37.520;2023-04-20T03:12:05;100534.53;;;10.46;35.75
61205;BME280;47068;55.780;37.520;2023-04-20T03:14:30;100538.75;;;10.48;36.12
61205;BME280;47068;55.780;37.520;2023-04-20T03:16:56;100533.97;;;10.52;35.64
61205;BME280;47068;55.780;37.520;2023-04-20T03:19:22;100525.31;;;10.50;35.46
61205;BME280;47068;55.780;37.520;2023-04-20T03:21:48;100533.69;;;10.64;36.36
61205;BME280;47068;55.780;37.520;2023-04-20T03:24:13;100522.16;;;10.74;36.30
61205;BME280;47068;55.780;37.520;2023-04-20T03:26:39;100508.16;;;10.72;35.83
61205;BME280;47068;55.780;37.520;2023-04-20T03:29:04;100511.28;;;10.94;36.73
61205;BME280;47068;55.780;37.520;2023-04-20T03:31:30;100520.63;;;11.08;35.95
61205;BME280;47068;55.780;37.520;2023-04-20T03:33:55;100510.22;;;11.15;36.56
61205;BME280;47068;55.780;37.520;2023-04-20T03:36:21;100517.59;;;11.21;35.76
61205;BME280;47068;55.780;37.520;2023-04-20T03:38:46;100522.75;;;11.32;35.31
61205;BME280;47068;55.780;37.520;2023-04-20T03:41:13;100511.00;;;11.25;35.42
61205;BME280;47068;55.780;37.520;2023-04-20T03:43:38;100526.38;;;11.40;34.19
61205;BME280;47068;55.780;37.520;2023-04-20T03:46:05;100524.47;;;11.51;34.45
61205;BME280;47068;55.780;37.520;2023-04-20T03:48:31;100517.78;;;11.64;34.03
61205;BME280;47068;55.780;37.520;2023-04-20T03:50:57;100519.97;;;11.78;34.15
61205;BME280;47068;55.780;37.520;2023-04-20T03:53:23;100519.66;;;11.81;34.37
61205;BME280;47068;55.780;37.520;2023-04-20T03:55:48;100525.38;;;11.87;34.18
61205;BME280;47068;55.780;37.520;2023-04-20T03:58:14;100527.50;;;11.83;33.60
61205;BME280;47068;55.780;37.520;2023-04-20T04:00:39;100527.66;;;11.99;34.37
61205;BME280;47068;55.780;37.520;2023-04-20T04:03:05;100512.97;;;11.95;34.70
61205;BME280;47068;55.780;37.520;2023-04-20T04:05:30;100487.28;;;11.94;33.24
61205;BME280;47068;55.780;37.520;2023-04-20T04:07:56;100472.78;;;11.97;33.01
61205;BME280;47068;55.780;37.520;2023-04-20T04:10:21;100509.56;;;12.29;33.10
61205;BME280;47068;55.780;37.520;2023-04-20T04:12:47;100469.13;;;12.15;33.09
61205;BME280;47068;55.780;37.520;2023-04-20T04:15:12;100495.03;;;12.49;33.06
61205;BME280;47068;55.780;37.520;2023-04-20T04:17:38;100511.06;;;12.75;32.48
61205;BME280;47068;55.780;37.520;2023-04-20T04:20:04;100504.25;;;13.14;32.51
61205;BME280;47068;55.780;37.520;2023-04-20T04:22:32;100475.41;;;13.18;31.97
61205;BME280;47068;55.780;37.520;2023-04-20T04:24:58;100503.19;;;13.33;31.86
61205;BME280;47068;55.780;37.520;2023-04-20T04:27:23;100496.25;;;13.14;32.11
61205;BME280;47068;55.780;37.520;2023-04-20T04:29:49;100505.97;;;12.89;32.74
61205;BME280;47068;55.780;37.520;2023-04-20T04:32:15;100495.47;;;12.62;32.75
61205;BME280;47068;55.780;37.520;2023-04-20T04:34:41;100500.72;;;12.80;32.98
61205;BME280;47068;55.780;37.520;2023-04-20T04:37:10;100470.75;;;12.60;33.43
61205;BME280;47068;55.780;37.520;2023-04-20T04:39:36;100503.09;;;12.83;33.26
61205;BME280;47068;55.780;37.520;2023-04-20T04:42:01;100466.19;;;12.78;33.53
61205;BME280;47068;55.780;37.520;2023-04-20T04:44:27;100478.69;;;12.78;33.08
61205;BME280;47068;55.780;37.520;2023-04-20T04:46:55;100485.22;;;12.83;32.58
61205;BME280;47068;55.780;37.520;2023-04-20T04:49:22;100474.84;;;12.80;33.02
61205;BME280;47068;55.780;37.520;2023-04-20T04:51:49;100490.69;;;12.74;33.69
61205;BME280;47068;55.780;37.520;2023-04-20T04:54:14;100493.59;;;12.88;33.54
61205;BME280;47068;55.780;37.520;2023-04-20T04:56:40;100493.59;;;12.88;33.65
61205;BME280;47068;55.780;37.520;2023-04-20T04:59:05;100486.72;;;13.12;33.07
61205;BME280;47068;55.780;37.520;2023-04-20T05:01:31;100458.13;;;13.04;32.91
61205;BME280;47068;55.780;37.520;2023-04-20T05:03:56;100473.75;;;13.25;33.25
61205;BME280;47068;55.780;37.520;2023-04-20T05:06:22;100489.50;;;13.44;33.42
61205;BME280;47068;55.780;37.520;2023-04-20T05:08:47;100479.53;;;13.54;32.47
61205;BME280;47068;55.780;37.520;2023-04-20T05:11:13;100475.47;;;13.34;32.39
61205;BME280;47068;55.780;37.520;2023-04-20T05:13:38;100471.06;;;13.17;33.18
61205;BME280;47068;55.780;37.520;2023-04-20T05:16:04;100460.44;;;13.07;33.22
61205;BME280;47068;55.780;37.520;2023-04-20T05:18:29;100467.16;;;14.34;31.81
61205;BME280;47068;55.780;37.520;2023-04-20T05:20:55;100471.03;;;17.00;29.23
61205;BME280;47068;55.780;37.520;2023-04-20T05:23:20;100463.72;;;20.27;23.26
61205;BME280;47068;55.780;37.520;2023-04-20T05:25:46;100449.50;;;22.86;20.85
61205;BME280;47068;55.780;37.520;2023-04-20T05:28:11;100445.56;;;23.66;19.83
61205;BME280;47068;55.780;37.520;2023-04-20T05:30:37;100452.41;;;23.69;19.24
61205;BME280;47068;55.780;37.520;2023-04-20T05:33:02;100453.19;;;24.41;18.70
61205;BME280;47068;55.780;37.520;2023-04-20T05:35:28;100447.34;;;25.07;17.64
61205;BME280;47068;55.780;37.520;2023-04-20T05:37:54;100442.72;;;25.47;17.45
61205;BME280;47068;55.780;37.520;2023-04-20T05:40:19;100373.47;;;25.03;17.35
61205;BME280;47068;55.780;37.520;2023-04-20T05:42:45;100447.69;;;25.10;17.78
61205;BME280;47068;55.780;37.520;2023-04-20T05:45:10;100425.03;;;24.58;18.00
61205;BME280;47068;55.780;37.520;2023-04-20T05:47:36;100444.97;;;23.64;19.16
61205;BME280;47068;55.780;37.520;2023-04-20T05:50:02;100435.53;;;23.18;19.79
61205;BME280;47068;55.780;37.520;2023-04-20T05:52:28;100437.25;;;23.13;20.17
61205;BME280;47068;55.780;37.520;2023-04-20T05:54:53;100441.38;;;23.34;19.40
61205;BME280;47068;55.780;37.520;2023-04-20T05:57:19;100354.38;;;23.10;19.15
61205;BME280;47068;55.780;37.520;2023-04-20T05:59:44;100432.53;;;24.10;18.76
61205;BME280;47068;55.780;37.520;2023-04-20T06:02:10;100428.31;;;25.35;17.84
61205;BME280;47068;55.780;37.520;2023-04-20T06:04:36;100421.16;;;26.58;16.74
61205;BME280;47068;55.780;37.520;2023-04-20T06:07:02;100441.72;;;28.28;14.94
61205;BME280;47068;55.780;37.520;2023-04-20T06:09:27;100405.84;;;29.24;13.72
61205;BME280;47068;55.780;37.520;2023-04-20T06:11:53;100435.31;;;29.89;13.07
61205;BME280;47068;55.780;37.520;2023-04-20T06:14:18;100431.81;;;31.19;12.45
61205;BME280;47068;55.780;37.520;2023-04-20T06:16:44;100418.31;;;33.16;11.25
61205;BME280;47068;55.780;37.520;2023-04-20T06:19:09;100425.38;;;33.03;10.77
61205;BME280;47068;55.780;37.520;2023-04-20T06:21:35;100416.00;;;31.94;11.41
61205;BME280;47068;55.780;37.520;2023-04-20T06:24:00;100417.69;;;33.00;10.55
61205;BME280;47068;55.780;37.520;2023-04-20T06:26:26;100423.25;;;34.13;10.29
61205;BME280;47068;55.780;37.520;2023-04-20T06:28:52;100410.69;;;35.93;8.84
61205;BME280;47068;55.780;37.520;2023-04-20T06:31:18;100403.72;;;35.10;9.34
61205;BME280;47068;55.780;37.520;2023-04-20T06:33:44;100406.19;;;34.98;9.53
61205;BME280;47068;55.780;37.520;2023-04-20T06:36:09;100412.72;;;36.23;9.16
61205;BME280;47068;55.780;37.520;2023-04-20T06:38:35;100400.34;;;34.86;9.19
61205;BME280;47068;55.780;37.520;2023-04-20T06:41:01;100370.16;;;34.89;9.48
61205;BME280;47068;55.780;37.520;2023-04-20T06:43:27;100401.06;;;33.29;10.43
61205;BME280;47068;55.780;37.520;2023-04-20T06:45:53;100396.53;;;33.14;10.06
61205;BME280;47068;55.780;37.520;2023-04-20T06:48:18;100396.31;;;31.77;11.04
61205;BME280;47068;55.780;37.520;2023-04-20T06:50:46;100394.44;;;31.23;11.61
61205;BME280;47068;55.780;37.520;2023-04-20T06:53:13;100381.97;;;30.71;11.59
61205;BME280;47068;55.780;37.520;2023-04-20T06:55:40;100360.44;;;32.21;11.34
61205;BME280;47068;55.780;37.520;2023-04-20T06:58:05;100386.88;;;34.38;9.58
61205;BME280;47068;55.780;37.520;2023-04-20T07:00:31;100381.56;;;33.02;10.49
61205;BME280;47068;55.780;37.520;2023-04-20T07:02:56;100385.41;;;33.25;10.60
61205;BME280;47068;55.780;37.520;2023-04-20T07:05:22;100367.59;;;32.45;10.60
61205;BME280;47068;55.780;37.520;2023-04-20T07:07:48;100386.09;;;30.84;11.96
61205;BME280;47068;55.780;37.520;2023-04-20T07:10:14;100386.06;;;31.82;11.17
61205;BME280;47068;55.780;37.520;2023-04-20T07:12:40;100381.56;;;31.62;11.18
61205;BME280;47068;55.780;37.520;2023-04-20T07:15:07;100373.38;;;32.49;10.80
61205;BME280;47068;55.780;37.520;2023-04-20T07:17:32;100379.94;;;33.94;9.87
61205;BME280;47068;55.780;37.520;2023-04-20T07:19:58;100390.13;;;34.72;9.22
61205;BME280;47068;55.780;37.520;2023-04-20T07:22:35;100363.97;;;35.78;8.74
61205;BME280;47068;55.780;37.520;2023-04-20T07:25:05;100359.72;;;35.72;8.69
61205;BME280;47068;55.780;37.520;2023-04-20T07:27:38;100348.03;;;36.06;8.32
61205;BME280;47068;55.780;37.520;2023-04-20T07:30:08;100342.13;;;37.26;7.97
61205;BME280;47068;55.780;37.520;2023-04-20T07:32:36;100342.13;;;37.60;7.72
61205;BME280;47068;55.780;37.520;2023-04-20T07:35:02;100362.41;;;36.78;7.96
61205;BME280;47068;55.780;37.520;2023-04-20T07:37:28;100363.81;;;35.38;8.47
61205;BME280;47068;55.780;37.520;2023-04-20T07:39:54;100359.03;;;34.21;9.02
61205;BME280;47068;55.780;37.520;2023-04-20T07:42:20;100361.63;;;33.29;9.91
61205;BME280;47068;55.780;37.520;2023-04-20T07:44:46;100351.84;;;33.17;9.49
61205;BME280;47068;55.780;37.520;2023-04-20T07:47:12;100350.28;;;32.69;8.42
61205;BME280;47068;55.780;37.520;2023-04-20T07:49:37;100343.25;;;31.27;9.68
61205;BME280;47068;55.780;37.520;2023-04-20T07:52:05;100354.50;;;28.94;11.36
61205;BME280;47068;55.780;37.520;2023-04-20T07:54:31;100353.94;;;25.35;13.89
61205;BME280;47068;55.780;37.520;2023-04-20T07:56:57;100344.97;;;24.31;14.33
61205;BME280;47068;55.780;37.520;2023-04-20T07:59:23;100344.84;;;27.92;11.81
61205;BME280;47068;55.780;37.520;2023-04-20T08:01:48;100344.75;;;29.89;10.75
61205;BME280;47068;55.780;37.520;2023-04-20T08:04:15;100330.91;;;26.86;13.03
61205;BME280;47068;55.780;37.520;2023-04-20T08:06:40;100325.81;;;25.01;13.32
61205;BME280;47068;55.780;37.520;2023-04-20T08:09:06;100350.50;;;23.78;14.26
61205;BME280;47068;55.780;37.520;2023-04-20T08:11:34;100344.19;;;22.94;15.41
61205;BME280;47068;55.780;37.520;2023-04-20T08:13:59;100344.66;;;21.87;16.62
61205;BME280;47068;55.780;37.520;2023-04-20T08:16:25;100333.94;;;22.60;16.75
61205;BME280;47068;55.780;37.520;2023-04-20T08:18:51;100331.81;;;23.28;16.54
61205;BME280;47068;55.780;37.520;2023-04-20T08:21:16;100333.72;;;23.81;15.26
61205;BME280;47068;55.780;37.520;2023-04-20T08:23:42;100338.56;;;24.14;14.63
61205;BME280;47068;55.780;37.520;2023-04-20T08:26:08;100340.13;;;24.10;14.43
61205;BME280;47068;55.780;37.520;2023-04-20T08:28:33;100324.41;;;24.12;14.98
61205;BME280;47068;55.780;37.520;2023-04-20T08:30:59;100325.81;;;23.38;15.47
61205;BME280;47068;55.780;37.520;2023-04-20T08:33:24;100316.44;;;23.22;15.56
61205;BME280;47068;55.780;37.520;2023-04-20T08:35:50;100328.69;;;21.79;16.90
61205;BME280;47068;55.780;37.520;2023-04-20T08:38:16;100326.03;;;21.47;17.21
61205;BME280;47068;55.780;37.520;2023-04-20T08:40:42;100326.69;;;21.68;17.87
61205;BME280;47068;55.780;37.520;2023-04-20T08:43:07;100324.22;;;21.66;18.14
61205;BME280;47068;55.780;37.520;2023-04-20T08:45:32;100317.13;;;21.40;17.77
61205;BME280;47068;55.780;37.520;2023-04-20T08:48:02;100291.19;;;21.26;17.80
61205;BME280;47068;55.780;37.520;2023-04-20T08:50:30;100319.25;;;21.63;17.21
61205;BME280;47068;55.780;37.520;2023-04-20T08:52:56;100313.72;;;21.76;16.96
61205;BME280;47068;55.780;37.520;2023-04-20T08:55:21;100310.31;;;21.31;17.61
61205;BME280;47068;55.780;37.520;2023-04-20T08:57:47;100312.28;;;21.11;18.25
61205;BME280;47068;55.780;37.520;2023-04-20T09:00:16;100280.84;;;21.10;18.36
61205;BME280;47068;55.780;37.520;2023-04-20T09:02:52;100304.88;;;21.31;17.23
61205;BME280;47068;55.780;37.520;2023-04-20T09:05:44;100304.63;;;21.08;18.03
61205;BME280;47068;55.780;37.520;2023-04-20T09:08:10;100292.13;;;21.07;17.70
61205;BME280;47068;55.780;37.520;2023-04-20T09:10:43;100288.56;;;20.11;18.44
61205;BME280;47068;55.780;37.520;2023-04-20T09:13:20;100304.75;;;20.11;18.74
61205;BME280;47068;55.780;37.520;2023-04-20T09:15:45;100297.53;;;19.98;17.99
61205;BME280;47068;55.780;37.520;2023-04-20T09:18:13;100309.59;;;19.49;18.51
61205;BME280;47068;55.780;37.520;2023-04-20T09:20:39;100310.88;;;18.79;19.18
61205;BME280;47068;55.780;37.520;2023-04-20T09:23:19;100317.06;;;18.32;19.30
61205;BME280;47068;55.780;37.520;2023-04-20T09:25:51;100275.06;;;18.10;19.01
61205;BME280;47068;55.780;37.520;2023-04-20T09:28:17;100301.06;;;18.65;19.23
61205;BME280;47068;55.780;37.520;2023-04-20T09:30:47;100287.91;;;19.03;18.74
61205;BME280;47068;55.780;37.520;2023-04-20T09:33:13;100304.00;;;18.77;18.69
61205;BME280;47068;55.780;37.520;2023-04-20T09:35:41;100292.66;;;18.95;20.68
61205;BME280;47068;55.780;37.520;2023-04-20T09:38:08;100286.50;;;19.27;18.44
61205;BME280;47068;55.780;37.520;2023-04-20T09:40:34;100275.06;;;19.32;18.42
61205;BME280;47068;55.780;37.520;2023-04-20T09:43:09;100289.84;;;19.82;18.78
61205;BME280;47068;55.780;37.520;2023-04-20T09:45:38;100260.19;;;19.49;19.14
61205;BME280;47068;55.780;37.520;2023-04-20T09:48:05;100285.91;;;19.84;19.30
61205;BME280;47068;55.780;37.520;2023-04-20T09:50:31;100285.03;;;20.03;19.12
61205;BME280;47068;55.780;37.520;2023-04-20T09:52:57;100275.06;;;20.11;18.89
61205;BME280;47068;55.780;37.520;2023-04-20T09:55:22;100278.75;;;20.23;18.40
61205;BME280;47068;55.780;37.520;2023-04-20T09:57:51;100267.56;;;19.99;18.50
61205;BME280;47068;55.780;37.520;2023-04-20T10:00:18;100278.84;;;19.83;18.98
61205;BME280;47068;55.780;37.520;2023-04-20T10:02:45;100268.22;;;19.22;19.99
61205;BME280;47068;55.780;37.520;2023-04-20T10:05:12;100265.56;;;19.49;20.35
61205;BME280;47068;55.780;37.520;2023-04-20T10:07:38;100263.06;;;19.67;19.84
61205;BME280;47068;55.780;37.520;2023-04-20T10:10:12;100263.47;;;19.64;19.54
61205;BME280;47068;55.780;37.520;2023-04-20T10:12:52;100263.06;;;19.54;19.43
61205;BME280;47068;55.780;37.520;2023-04-20T10:15:18;100251.63;;;19.39;19.90
61205;BME280;47068;55.780;37.520;2023-04-20T10:17:46;100271.72;;;19.03;19.48
61205;BME280;47068;55.780;37.520;2023-04-20T10:20:27;100256.38;;;19.17;19.59
61205;BME280;47068;55.780;37.520;2023-04-20T10:23:06;100256.19;;;19.45;19.34
61205;BME280;47068;55.780;37.520;2023-04-20T10:25:32;100257.22;;;19.24;19.57
61205;BME280;47068;55.780;37.520;2023-04-20T10:27:59;100255.56;;;19.23;19.59
61205;BME280;47068;55.780;37.520;2023-04-20T10:30:30;100254.13;;;19.27;19.48
61205;BME280;47068;55.780;37.520;2023-04-20T10:33:04;100246.88;;;19.67;19.61
61205;BME280;47068;55.780;37.520;2023-04-20T10:35:40;100254.09;;;19.93;19.31
61205;BME280;47068;55.780;37.520;2023-04-20T10:38:06;100241.06;;;19.50;18.82
61205;BME280;47068;55.780;37.520;2023-04-20T10:40:34;100245.19;;;19.13;19.28
61205;BME280;47068;55.780;37.520;2023-04-20T10:42:59;100249.34;;;19.29;19.56
61205;BME280;47068;55.780;37.520;2023-04-20T10:45:45;100245.19;;;19.13;19.71
61205;BME280;47068;55.780;37.520;2023-04-20T10:48:11;100243.31;;;19.27;19.22
61205;BME280;47068;55.780;37.520;2023-04-20T10:50:38;100236.91;;;19.35;19.36
61205;BME280;47068;55.780;37.520;2023-04-20T10:53:04;100247.28;;;19.51;19.45
61205;BME280;47068;55.780;37.520;2023-04-20T10:55:30;100207.88;;;19.50;19.48
61205;BME280;47068;55.780;37.520;2023-04-20T10:57:56;100240.19;;;19.37;19.09
61205;BME280;47068;55.780;37.520;2023-04-20T11:00:26;100246.84;;;19.21;19.64
61205;BME280;47068;55.780;37.520;2023-04-20T11:02:54;100246.44;;;19.17;19.86
61205;BME280;47068;55.780;37.520;2023-04-20T11:05:22;100236.47;;;19.24;19.99
61205;BME280;47068;55.780;37.520;2023-04-20T11:10:18;100226.94;;;19.28;20.43
61205;BME280;47068;55.780;37.520;2023-04-20T11:12:44;100230.25;;;19.37;20.09
61205;BME280;47068;55.780;37.520;2023-04-20T11:15:10;100231.94;;;19.51;19.65
61205;BME280;47068;55.780;37.520;2023-04-20T11:17:36;100219.88;;;19.67;19.73
61205;BME280;47068;55.780;37.520;2023-04-20T11:20:08;100210.72;;;19.75;19.41
61205;BME280;47068;55.780;37.520;2023-04-20T11:22:35;100211.13;;;19.78;19.61
61205;BME280;47068;55.780;37.520;2023-04-20T11:25:07;100215.69;;;19.91;19.89
61205;BME280;47068;55.780;37.520;2023-04-20T11:27:34;100223.13;;;20.02;19.84
61205;BME280;47068;55.780;37.520;2023-04-20T11:30:00;100188.28;;;19.81;19.87
61205;BME280;47068;55.780;37.520;2023-04-20T11:32:33;100167.03;;;18.39;21.42
61205;BME280;47068;55.780;37.520;2023-04-20T11:35:04;100210.09;;;18.74;21.58
61205;BME280;47068;55.780;37.520;2023-04-20T11:37:32;100205.31;;;18.89;21.68
61205;BME280;47068;55.780;37.520;2023-04-20T11:39:59;100200.94;;;18.75;21.71
61205;BME280;47068;55.780;37.520;2023-04-20T11:42:25;100210.97;;;18.46;21.90
61205;BME280;47068;55.780;37.520;2023-04-20T11:44:51;100196.50;;;18.00;22.74
61205;BME280;47068;55.780;37.520;2023-04-20T11:47:16;100199.94;;;18.28;22.62
61205;BME280;47068;55.780;37.520;2023-04-20T11:49:42;100180.94;;;18.49;22.52
61205;BME280;47068;55.780;37.520;2023-04-20T11:52:08;100194.13;;;18.79;22.04
61205;BME280;47068;55.780;37.520;2023-04-20T11:54:33;100178.31;;;18.63;22.15
61205;BME280;47068;55.780;37.520;2023-04-20T11:56:59;100189.38;;;18.33;22.62
61205;BME280;47068;55.780;37.520;2023-04-20T11:59:25;100189.38;;;18.33;22.39
61205;BME280;47068;55.780;37.520;2023-04-20T12:01:50;100165.81;;;18.42;21.95
61205;BME280;47068;55.780;37.520;2023-04-20T12:04:16;100151.81;;;18.12;22.14
61205;BME280;47068;55.780;37.520;2023-04-20T12:06:42;100182.38;;;17.91;22.50
61205;BME280;47068;55.780;37.520;2023-04-20T12:09:07;100165.06;;;18.07;22.58
61205;BME280;47068;55.780;37.520;2023-04-20T12:11:33;100138.34;;;18.12;22.34
61205;BME280;47068;55.780;37.520;2023-04-20T12:13:58;100132.47;;;17.89;22.75
61205;BME280;47068;55.780;37.520;2023-04-20T12:16:24;100178.22;;;18.36;22.35
61205;BME280;47068;55.780;37.520;2023-04-20T12:18:50;100168.38;;;18.70;21.90
61205;BME280;47068;55.780;37.520;2023-04-20T12:21:16;100158.03;;;18.80;22.03
61205;BME280;47068;55.780;37.520;2023-04-20T12:23:41;100152.22;;;18.70;22.05
61205;BME280;47068;55.780;37.520;2023-04-20T12:26:08;100153.78;;;18.44;21.94
61205;BME280;47068;55.780;37.520;2023-04-20T12:28:34;100145.78;;;18.58;21.90
61205;BME280;47068;55.780;37.520;2023-04-20T12:30:59;100144.34;;;18.81;21.18
61205;BME280;47068;55.780;37.520;2023-04-20T12:33:25;100137.31;;;18.74;21.30
61205;BME280;47068;55.780;37.520;2023-04-20T12:35:50;100139.75;;;18.69;21.67
61205;BME280;47068;55.780;37.520;2023-04-20T12:38:16;100126.72;;;18.79;21.62
61205;BME280;47068;55.780;37.520;2023-04-20T12:40:42;100133.16;;;18.78;21.82